createdAt,value
2019-05-28T00:00:29.750Z,99.87
2019-05-28T00:01:29.750Z,99.99
2019-05-28T00:02:29.741Z,99.99
2019-05-28T00:03:29.738Z,99.99
2019-05-28T00:04:29.739Z,99.99
2019-05-28T00:05:29.741Z,99.99
2019-05-28T00:06:29.734Z,99.99
2019-05-28T00:07:29.731Z,99.99
2019-05-28T00:08:29.788Z,99.99
2019-05-28T00:09:29.708Z,99.99
2019-05-28T00:10:29.710Z,99.99
2019-05-28T00:11:29.712Z,99.99
2019-05-28T00:12:29.697Z,99.99
2019-05-28T00:13:29.688Z,99.99
2019-05-28T00:14:29.685Z,99.99
2019-05-28T00:15:29.694Z,99.99
2019-05-28T00:16:29.675Z,99.99
2019-05-28T00:17:29.672Z,99.99
2019-05-28T00:18:29.678Z,99.99
2019-05-28T00:19:29.673Z,99.99
2019-05-28T00:20:29.659Z,99.99
2019-05-28T00:21:29.650Z,99.99
2019-05-28T00:22:29.640Z,99.99
2019-05-28T00:23:29.639Z,99.99
2019-05-28T00:24:29.636Z,99.99
2019-05-28T00:25:29.631Z,99.99
2019-05-28T00:26:29.620Z,99.99
2019-05-28T00:27:29.619Z,99.99
2019-05-28T00:28:29.618Z,99.99
2019-05-28T00:29:29.615Z,99.99
2019-05-28T00:30:29.604Z,99.99
2019-05-28T00:31:29.600Z,99.99
2019-05-28T00:32:29.592Z,99.99
2019-05-28T00:33:29.583Z,99.99
2019-05-28T00:34:29.595Z,99.99
2019-05-28T00:35:29.593Z,99.99
2019-05-28T00:36:29.577Z,99.99
2019-05-28T00:37:29.581Z,99.99
2019-05-28T00:38:29.569Z,99.99
2019-05-28T00:39:29.564Z,99.99
2019-05-28T00:40:29.553Z,99.99
2019-05-28T00:41:29.553Z,99.99
2019-05-28T00:42:29.549Z,99.99
2019-05-28T00:43:29.540Z,99.99
2019-05-28T00:44:29.527Z,99.99
2019-05-28T00:45:29.531Z,99.99
2019-05-28T00:46:29.528Z,99.99
2019-05-28T00:47:29.523Z,99.99
2019-05-28T00:48:29.516Z,99.99
2019-05-28T00:49:29.514Z,99.99
2019-05-28T00:50:29.508Z,99.99
2019-05-28T00:51:29.496Z,99.99
2019-05-28T00:52:29.493Z,99.99
2019-05-28T00:53:29.488Z,99.99
2019-05-28T00:54:29.487Z,99.99
2019-05-28T00:55:29.485Z,99.99
2019-05-28T00:56:29.473Z,99.99
2019-05-28T00:57:29.470Z,99.99
2019-05-28T00:58:29.461Z,99.99
2019-05-28T00:59:29.460Z,99.99
2019-05-28T01:00:36.798Z,99.99
2019-05-28T01:01:29.450Z,99.99
2019-05-28T01:02:29.451Z,99.99
2019-05-28T01:03:29.445Z,99.99
2019-05-28T01:04:29.445Z,99.99
2019-05-28T01:05:29.425Z,99.99
2019-05-28T01:06:29.418Z,99.99
2019-05-28T01:07:29.423Z,99.99
2019-05-28T01:08:29.422Z,99.99
2019-05-28T01:09:29.408Z,99.99
2019-05-28T01:10:29.397Z,99.99
2019-05-28T01:11:29.402Z,99.99
2019-05-28T01:12:29.388Z,99.99
2019-05-28T01:13:29.386Z,99.99
2019-05-28T01:14:29.381Z,99.99
2019-05-28T01:15:29.379Z,99.99
2019-05-28T01:16:29.365Z,99.99
2019-05-28T01:17:29.359Z,99.99
2019-05-28T01:18:29.359Z,99.99
2019-05-28T01:19:29.353Z,99.99
2019-05-28T01:20:29.346Z,99.99
2019-05-28T01:21:29.343Z,99.99
2019-05-28T01:22:29.337Z,99.99
2019-05-28T01:23:29.328Z,99.99
2019-05-28T01:24:29.325Z,99.99
2019-05-28T01:25:29.318Z,99.99
2019-05-28T01:26:29.310Z,99.99
2019-05-28T01:27:29.317Z,99.99
2019-05-28T01:28:29.304Z,99.99
2019-05-28T01:29:29.294Z,99.99
2019-05-28T01:30:29.280Z,99.99
2019-05-28T01:31:29.289Z,99.99
2019-05-28T01:32:29.280Z,99.99
2019-05-28T01:33:29.275Z,99.99
2019-05-28T01:34:29.264Z,99.99
2019-05-28T01:35:29.263Z,99.99
2019-05-28T01:36:29.255Z,99.99
2019-05-28T01:37:29.250Z,99.99
2019-05-28T01:38:29.244Z,99.99
2019-05-28T01:39:29.239Z,99.99
2019-05-28T01:40:29.240Z,99.99
2019-05-28T01:41:29.221Z,99.99
2019-05-28T01:42:29.225Z,99.99
2019-05-28T01:43:29.209Z,99.99
2019-05-28T01:44:29.211Z,99.99
2019-05-28T01:45:29.231Z,99.99
2019-05-28T01:46:29.203Z,99.99
2019-05-28T01:47:29.202Z,99.99
2019-05-28T01:48:29.194Z,99.99
2019-05-28T01:49:29.229Z,99.99
2019-05-28T01:50:29.176Z,99.99
2019-05-28T01:51:29.172Z,99.99
2019-05-28T01:52:29.166Z,99.99
2019-05-28T01:53:29.155Z,99.99
2019-05-28T01:54:29.170Z,99.99
2019-05-28T01:55:29.149Z,99.99
2019-05-28T01:56:29.138Z,99.99
2019-05-28T01:57:29.138Z,99.99
2019-05-28T01:58:29.128Z,99.99
2019-05-28T01:59:29.127Z,99.99
2019-05-28T02:00:29.122Z,99.99
2019-05-28T02:01:29.109Z,99.99
2019-05-28T02:02:29.116Z,99.99
2019-05-28T02:03:29.103Z,99.99
2019-05-28T02:04:29.095Z,99.99
2019-05-28T02:05:29.096Z,99.99
2019-05-28T02:06:29.085Z,99.99
2019-05-28T02:07:29.078Z,99.99
2019-05-28T02:08:29.071Z,99.99
2019-05-28T02:09:29.063Z,99.99
2019-05-28T02:10:29.056Z,99.99
2019-05-28T02:11:29.059Z,99.99
2019-05-28T02:12:29.041Z,99.99
2019-05-28T02:13:29.052Z,99.99
2019-05-28T02:14:29.038Z,99.99
2019-05-28T02:15:29.027Z,99.99
2019-05-28T02:16:29.024Z,99.99
2019-05-28T02:17:29.020Z,99.99
2019-05-28T02:18:29.016Z,99.99
2019-05-28T02:19:29.003Z,99.99
2019-05-28T02:20:28.996Z,99.99
2019-05-28T02:21:28.995Z,99.99
2019-05-28T02:22:28.989Z,99.99
2019-05-28T02:23:28.982Z,99.99
2019-05-28T02:24:28.981Z,99.99
2019-05-28T02:25:28.977Z,99.99
2019-05-28T02:26:28.967Z,99.99
2019-05-28T02:27:28.960Z,99.99
2019-05-28T02:28:28.953Z,99.99
2019-05-28T02:29:28.949Z,99.99
2019-05-28T02:30:28.945Z,99.99
2019-05-28T02:31:28.937Z,99.99
2019-05-28T02:32:28.932Z,99.99
2019-05-28T02:33:28.930Z,99.99
2019-05-28T02:34:28.916Z,99.99
2019-05-28T02:35:28.913Z,99.99
2019-05-28T02:36:28.906Z,99.99
2019-05-28T02:37:28.910Z,99.99
2019-05-28T02:38:28.896Z,99.99
2019-05-28T02:39:28.887Z,99.99
2019-05-28T02:40:28.882Z,99.99
2019-05-28T02:41:28.875Z,99.99
2019-05-28T02:42:28.875Z,99.99
2019-05-28T02:43:28.887Z,99.99
2019-05-28T02:44:28.862Z,99.99
2019-05-28T02:45:28.863Z,99.99
2019-05-28T02:46:28.849Z,99.99
2019-05-28T02:47:28.846Z,99.99
2019-05-28T02:48:28.834Z,99.99
2019-05-28T02:49:28.841Z,99.99
2019-05-28T02:50:28.825Z,99.99
2019-05-28T02:51:28.820Z,99.99
2019-05-28T02:52:31.837Z,99.99
2019-05-28T02:53:28.806Z,99.99
2019-05-28T02:54:28.800Z,99.99
2019-05-28T02:55:28.795Z,99.99
2019-05-28T02:56:28.796Z,99.99
2019-05-28T02:57:28.785Z,99.99
2019-05-28T02:58:28.778Z,99.99
2019-05-28T02:59:28.762Z,99.99
2019-05-28T03:00:28.764Z,99.99
2019-05-28T03:01:42.962Z,99.99
2019-05-28T03:02:28.756Z,99.99
2019-05-28T03:03:28.757Z,99.99
2019-05-28T03:04:28.750Z,99.99
2019-05-28T03:05:28.736Z,99.99
2019-05-28T03:06:28.767Z,99.99
2019-05-28T03:07:28.730Z,99.99
2019-05-28T03:08:28.724Z,99.99
2019-05-28T03:09:28.713Z,99.99
2019-05-28T03:10:28.706Z,99.99
2019-05-28T03:11:28.702Z,99.99
2019-05-28T03:12:28.696Z,99.99
2019-05-28T03:13:28.692Z,99.99
2019-05-28T03:14:28.678Z,99.99
2019-05-28T03:15:28.680Z,99.99
2019-05-28T03:16:28.674Z,99.99
2019-05-28T03:17:28.668Z,99.99
2019-05-28T03:18:28.674Z,99.99
2019-05-28T03:19:28.658Z,99.99
2019-05-28T03:20:28.647Z,99.99
2019-05-28T03:21:28.653Z,99.99
2019-05-28T03:22:28.639Z,99.99
2019-05-28T03:23:28.637Z,99.99
2019-05-28T03:24:28.622Z,99.99
2019-05-28T03:25:28.623Z,99.99
2019-05-28T03:26:28.619Z,99.99
2019-05-28T03:27:28.613Z,99.99
2019-05-28T03:28:28.609Z,99.99
2019-05-28T03:29:28.604Z,99.99
2019-05-28T03:30:28.597Z,99.99
2019-05-28T03:31:28.585Z,99.99
2019-05-28T03:32:28.584Z,99.99
2019-05-28T03:33:28.594Z,99.99
2019-05-28T03:34:28.578Z,99.99
2019-05-28T03:35:28.567Z,99.99
2019-05-28T03:36:28.568Z,99.99
2019-05-28T03:37:28.560Z,99.99
2019-05-28T03:38:28.560Z,99.99
2019-05-28T03:39:28.548Z,99.99
2019-05-28T03:40:28.550Z,99.99
2019-05-28T03:41:28.539Z,99.99
2019-05-28T03:42:28.539Z,99.99
2019-05-28T03:43:28.523Z,99.99
2019-05-28T03:44:28.520Z,99.99
2019-05-28T03:45:28.514Z,99.99
2019-05-28T03:46:28.507Z,99.99
2019-05-28T03:47:28.504Z,99.99
2019-05-28T03:48:28.506Z,99.99
2019-05-28T03:49:28.499Z,99.99
2019-05-28T03:50:28.495Z,99.99
2019-05-28T03:51:28.490Z,99.99
2019-05-28T03:52:28.470Z,99.99
2019-05-28T03:53:28.478Z,99.99
2019-05-28T03:54:28.472Z,99.99
2019-05-28T03:55:28.459Z,99.99
2019-05-28T03:56:28.445Z,99.99
2019-05-28T03:57:28.451Z,99.99
2019-05-28T03:58:28.439Z,99.99
2019-05-28T03:59:28.440Z,99.99
2019-05-28T04:00:28.432Z,99.99
2019-05-28T04:01:28.507Z,99.99
2019-05-28T04:02:28.431Z,99.99
2019-05-28T04:03:28.415Z,99.99
2019-05-28T04:04:28.408Z,99.99
2019-05-28T04:05:28.401Z,99.99
2019-05-28T04:06:28.403Z,99.99
2019-05-28T04:07:28.396Z,99.99
2019-05-28T04:08:28.391Z,99.99
2019-05-28T04:09:28.380Z,99.99
2019-05-28T04:10:28.375Z,99.99
2019-05-28T04:11:43.894Z,99.99
2019-05-28T04:12:28.373Z,99.99
2019-05-28T04:13:28.366Z,99.99
2019-05-28T04:14:28.364Z,99.99
2019-05-28T04:15:28.349Z,99.99
2019-05-28T04:16:28.348Z,99.99
2019-05-28T04:17:28.340Z,99.99
2019-05-28T04:18:28.329Z,99.99
2019-05-28T04:19:28.333Z,99.99
2019-05-28T04:20:28.331Z,99.99
2019-05-28T04:21:28.314Z,99.99
2019-05-28T04:22:28.317Z,99.99
2019-05-28T04:23:28.314Z,99.99
2019-05-28T04:24:28.316Z,99.99
2019-05-28T04:25:28.310Z,99.99
2019-05-28T04:26:28.294Z,99.99
2019-05-28T04:27:28.278Z,99.99
2019-05-28T04:28:28.269Z,99.99
2019-05-28T04:29:28.280Z,99.99
2019-05-28T04:30:28.272Z,99.99
2019-05-28T04:31:28.268Z,99.99
2019-05-28T04:32:39.941Z,99.99
2019-05-28T04:33:28.256Z,99.99
2019-05-28T04:34:28.259Z,99.99
2019-05-28T04:35:28.248Z,99.99
2019-05-28T04:36:28.244Z,99.99
2019-05-28T04:37:28.229Z,99.99
2019-05-28T04:38:28.240Z,99.99
2019-05-28T04:39:28.221Z,99.99
2019-05-28T04:40:28.224Z,99.99
2019-05-28T04:41:28.219Z,99.99
2019-05-28T04:42:28.209Z,99.99
2019-05-28T04:43:28.203Z,99.99
2019-05-28T04:44:28.875Z,99.99
2019-05-28T04:45:28.881Z,99.99
2019-05-28T04:46:28.189Z,99.99
2019-05-28T04:47:28.194Z,99.99
2019-05-28T04:48:28.172Z,99.99
2019-05-28T04:49:28.175Z,99.99
2019-05-28T04:50:28.166Z,99.99
2019-05-28T04:51:28.159Z,99.99
2019-05-28T04:52:30.665Z,99.99
2019-05-28T04:53:28.156Z,99.99
2019-05-28T04:54:28.154Z,99.99
2019-05-28T04:55:28.133Z,99.99
2019-05-28T04:56:28.146Z,99.99
2019-05-28T04:57:28.142Z,99.99
2019-05-28T04:58:28.137Z,99.99
2019-05-28T04:59:28.120Z,99.99
2019-05-28T05:00:28.125Z,99.99
2019-05-28T05:01:28.110Z,99.99
2019-05-28T05:02:28.100Z,99.99
2019-05-28T05:03:28.099Z,99.99
2019-05-28T05:04:28.101Z,99.99
2019-05-28T05:05:28.096Z,99.99
2019-05-28T05:06:28.101Z,99.99
2019-05-28T05:07:28.086Z,99.99
2019-05-28T05:08:28.080Z,99.99
2019-05-28T05:09:28.078Z,99.99
2019-05-28T05:10:28.058Z,99.99
2019-05-28T05:11:28.087Z,99.99
2019-05-28T05:12:28.065Z,99.99
2019-05-28T05:13:28.054Z,99.99
2019-05-28T05:14:28.120Z,99.99
2019-05-28T05:15:28.043Z,99.99
2019-05-28T05:16:28.034Z,99.99
2019-05-28T05:17:28.063Z,99.99
2019-05-28T05:18:28.040Z,99.99
2019-05-28T05:19:28.021Z,99.99
2019-05-28T05:20:28.015Z,99.99
2019-05-28T05:21:28.021Z,99.99
2019-05-28T05:22:28.005Z,99.99
2019-05-28T05:23:28.001Z,99.99
2019-05-28T05:24:28.009Z,99.99
2019-05-28T05:25:27.997Z,99.99
2019-05-28T05:26:27.991Z,99.99
2019-05-28T05:27:27.984Z,99.99
2019-05-28T05:28:27.982Z,99.99
2019-05-28T05:29:27.993Z,99.99
2019-05-28T05:30:27.976Z,99.99
2019-05-28T05:31:27.963Z,99.99
2019-05-28T05:32:28.017Z,99.99
2019-05-28T05:33:27.956Z,99.99
2019-05-28T05:34:27.958Z,99.99
2019-05-28T05:35:27.944Z,99.99
2019-05-28T05:36:27.965Z,99.99
2019-05-28T05:37:27.942Z,99.99
2019-05-28T05:38:27.934Z,98.76
2019-05-28T05:39:27.943Z,97.90
2019-05-28T05:40:28.906Z,97.47
2019-05-28T05:41:27.934Z,98.00
2019-05-28T05:42:27.920Z,98.52
2019-05-28T05:43:27.914Z,98.81
2019-05-28T05:44:27.909Z,98.33
2019-05-28T05:45:27.920Z,99.01
2019-05-28T05:46:27.906Z,95.75
2019-05-28T05:47:27.905Z,97.56
2019-05-28T05:48:27.897Z,97.76
2019-05-28T05:49:27.890Z,97.66
2019-05-28T05:50:27.896Z,97.28
2019-05-28T05:51:27.884Z,95.65
2019-05-28T05:52:27.880Z,95.94
2019-05-28T05:53:27.878Z,95.12
2019-05-28T05:54:27.868Z,94.79
2019-05-28T05:55:27.871Z,94.59
2019-05-28T05:56:27.896Z,94.17
2019-05-28T05:57:27.860Z,93.30
2019-05-28T05:58:27.853Z,93.21
2019-05-28T05:59:27.858Z,92.68
2019-05-28T06:00:27.843Z,92.39
2019-05-28T06:01:27.857Z,90.28
2019-05-28T06:02:27.842Z,89.41
2019-05-28T06:03:39.840Z,88.55
2019-05-28T06:04:27.848Z,88.45
2019-05-28T06:05:27.840Z,88.35
2019-05-28T06:06:27.854Z,87.59
2019-05-28T06:07:27.846Z,86.34
2019-05-28T06:08:27.835Z,86.25
2019-05-28T06:09:27.833Z,87.11
2019-05-28T06:10:27.822Z,87.30
2019-05-28T06:11:27.863Z,86.92
2019-05-28T06:12:27.816Z,87.11
2019-05-28T06:13:27.810Z,87.11
2019-05-28T06:14:27.815Z,86.15
2019-05-28T06:15:27.817Z,86.38
2019-05-28T06:16:27.813Z,85.91
2019-05-28T06:17:27.808Z,86.00
2019-05-28T06:18:27.805Z,85.81
2019-05-28T06:19:27.801Z,85.81
2019-05-28T06:20:27.812Z,85.14
2019-05-28T06:21:27.801Z,85.81
2019-05-28T06:22:27.804Z,85.52
2019-05-28T06:23:27.783Z,84.95
2019-05-28T06:24:27.786Z,85.71
2019-05-28T06:25:27.797Z,85.71
2019-05-28T06:26:27.794Z,85.71
2019-05-28T06:27:27.785Z,86.24
2019-05-28T06:28:27.857Z,85.66
2019-05-28T06:29:27.788Z,84.31
2019-05-28T06:30:27.811Z,83.16
2019-05-28T06:31:27.781Z,82.78
2019-05-28T06:32:27.779Z,82.97
2019-05-28T06:33:27.780Z,82.40
2019-05-28T06:34:27.784Z,82.49
2019-05-28T06:35:27.775Z,82.73
2019-05-28T06:36:27.812Z,81.96
2019-05-28T06:37:27.785Z,80.99
2019-05-28T06:38:27.786Z,81.19
2019-05-28T06:39:27.772Z,80.90
2019-05-28T06:40:27.780Z,80.22
2019-05-28T06:41:27.769Z,80.61
2019-05-28T06:42:27.770Z,80.61
2019-05-28T06:43:27.878Z,82.20
2019-05-28T06:44:27.833Z,80.86
2019-05-28T06:45:27.766Z,81.63
2019-05-28T06:46:27.767Z,82.20
2019-05-28T06:47:27.823Z,82.20
2019-05-28T06:48:27.797Z,83.26
2019-05-28T06:49:27.762Z,83.12
2019-05-28T06:50:27.763Z,83.12
2019-05-28T06:51:27.767Z,83.22
2019-05-28T06:52:27.763Z,83.51
2019-05-28T06:53:27.766Z,83.80
2019-05-28T06:54:27.765Z,84.42
2019-05-28T06:55:27.756Z,84.33
2019-05-28T06:56:27.753Z,85.19
2019-05-28T06:57:27.754Z,85.48
2019-05-28T06:58:38.741Z,86.34
2019-05-28T06:59:27.752Z,85.48
2019-05-28T07:00:27.753Z,87.07
2019-05-28T07:01:28.583Z,87.16
2019-05-28T07:02:27.747Z,87.21
2019-05-28T07:03:27.742Z,87.49
2019-05-28T07:04:32.617Z,86.92
2019-05-28T07:05:27.736Z,86.92
2019-05-28T07:06:27.741Z,86.34
2019-05-28T07:07:27.734Z,86.05
2019-05-28T07:08:27.760Z,86.48
2019-05-28T07:09:27.735Z,85.62
2019-05-28T07:10:27.729Z,85.52
2019-05-28T07:11:27.729Z,85.62
2019-05-28T07:12:27.776Z,85.62
2019-05-28T07:13:27.724Z,85.71
2019-05-28T07:14:27.721Z,85.71
2019-05-28T07:15:27.716Z,85.24
2019-05-28T07:16:27.717Z,84.37
2019-05-28T07:17:27.717Z,84.18
2019-05-28T07:18:27.707Z,83.51
2019-05-28T07:19:27.713Z,82.78
2019-05-28T07:20:27.713Z,82.01
2019-05-28T07:21:27.707Z,82.35
2019-05-28T07:22:27.709Z,82.40
2019-05-28T07:23:27.710Z,81.92
2019-05-28T07:24:27.707Z,81.28
2019-05-28T07:25:27.709Z,80.42
2019-05-28T07:26:27.713Z,80.32
2019-05-28T07:27:27.698Z,80.76
2019-05-28T07:28:27.698Z,80.42
2019-05-28T07:29:27.693Z,80.51
2019-05-28T07:30:27.696Z,79.60
2019-05-28T07:31:27.698Z,79.60
2019-05-28T07:32:27.700Z,80.07
2019-05-28T07:33:27.701Z,79.69
2019-05-28T07:34:31.174Z,78.92
2019-05-28T07:35:27.699Z,78.15
2019-05-28T07:36:27.734Z,77.90
2019-05-28T07:37:27.695Z,77.81
2019-05-28T07:38:27.696Z,76.98
2019-05-28T07:39:27.703Z,76.59
2019-05-28T07:40:31.467Z,76.98
2019-05-28T07:41:27.691Z,77.46
2019-05-28T07:42:32.759Z,77.08
2019-05-28T07:43:27.704Z,77.17
2019-05-28T07:44:27.709Z,77.94
2019-05-28T07:45:27.705Z,77.36
2019-05-28T07:46:27.708Z,77.23
2019-05-28T07:47:27.718Z,75.79
2019-05-28T07:48:27.719Z,75.49
2019-05-28T07:49:27.710Z,76.07
2019-05-28T07:50:27.711Z,77.13
2019-05-28T07:51:27.779Z,77.51
2019-05-28T07:52:27.716Z,77.23
2019-05-28T07:53:39.453Z,76.46
2019-05-28T07:54:27.715Z,76.46
2019-05-28T07:55:27.721Z,76.07
2019-05-28T07:56:27.720Z,75.31
2019-05-28T07:57:27.721Z,74.96
2019-05-28T07:58:27.727Z,74.86
2019-05-28T07:59:27.713Z,75.05
2019-05-28T08:00:27.722Z,75.40
2019-05-28T08:01:27.729Z,74.92
2019-05-28T08:02:27.722Z,75.02
2019-05-28T08:03:27.732Z,75.11
2019-05-28T08:04:27.725Z,74.92
2019-05-28T08:05:27.728Z,75.59
2019-05-28T08:06:27.741Z,75.21
2019-05-28T08:07:27.729Z,74.82
2019-05-28T08:08:27.729Z,74.63
2019-05-28T08:09:27.735Z,74.54
2019-05-28T08:10:29.392Z,74.92
2019-05-28T08:11:27.730Z,75.31
2019-05-28T08:12:27.731Z,75.49
2019-05-28T08:13:40.387Z,75.02
2019-05-28T08:14:27.735Z,74.25
2019-05-28T08:15:27.737Z,74.25
2019-05-28T08:16:27.740Z,73.57
2019-05-28T08:17:27.742Z,74.05
2019-05-28T08:18:27.737Z,73.86
2019-05-28T08:19:27.735Z,73.61
2019-05-28T08:20:27.746Z,73.90
2019-05-28T08:21:27.739Z,72.39
2019-05-28T08:22:40.967Z,72.11
2019-05-28T08:23:27.746Z,72.20
2019-05-28T08:24:27.747Z,70.86
2019-05-28T08:25:44.913Z,71.04
2019-05-28T08:26:27.748Z,70.41
2019-05-28T08:27:27.751Z,69.83
2019-05-28T08:28:27.750Z,70.66
2019-05-28T08:29:27.744Z,70.89
2019-05-28T08:30:27.758Z,71.43
2019-05-28T08:31:27.753Z,71.62
2019-05-28T08:32:27.755Z,71.34
2019-05-28T08:33:27.759Z,70.89
2019-05-28T08:34:27.766Z,71.18
2019-05-28T08:35:27.761Z,71.66
2019-05-28T08:36:27.758Z,70.98
2019-05-28T08:37:27.769Z,71.04
2019-05-28T08:38:27.769Z,70.66
2019-05-28T08:39:27.764Z,71.04
2019-05-28T08:40:27.768Z,70.76
2019-05-28T08:41:27.778Z,71.34
2019-05-28T08:42:27.783Z,71.40
2019-05-28T08:43:27.778Z,71.01
2019-05-28T08:44:27.774Z,71.78
2019-05-28T08:45:27.776Z,71.49
2019-05-28T08:46:27.778Z,72.65
2019-05-28T08:47:27.783Z,72.55
2019-05-28T08:48:27.784Z,73.13
2019-05-28T08:49:27.785Z,74.19
2019-05-28T08:50:34.571Z,74.34
2019-05-28T08:51:27.780Z,74.05
2019-05-28T08:52:27.788Z,74.34
2019-05-28T08:53:27.800Z,74.34
2019-05-28T08:54:27.785Z,74.82
2019-05-28T08:55:27.789Z,74.73
2019-05-28T08:56:27.799Z,75.11
2019-05-28T08:57:27.787Z,75.02
2019-05-28T08:58:27.788Z,75.59
2019-05-28T08:59:27.796Z,76.36
2019-05-28T09:00:27.792Z,76.32
2019-05-28T09:01:27.795Z,75.79
2019-05-28T09:02:28.997Z,75.11
2019-05-28T09:03:27.796Z,74.86
2019-05-28T09:04:27.799Z,74.96
2019-05-28T09:05:27.784Z,74.67
2019-05-28T09:06:27.799Z,76.06
2019-05-28T09:07:27.788Z,77.01
2019-05-28T09:08:38.619Z,75.48
2019-05-28T09:09:27.790Z,72.59
2019-05-28T09:10:27.796Z,71.85
2019-05-28T09:11:27.786Z,70.89
2019-05-28T09:12:27.788Z,68.96
2019-05-28T09:13:27.848Z,68.38
2019-05-28T09:14:27.820Z,67.90
2019-05-28T09:15:27.790Z,69.45
2019-05-28T09:16:27.794Z,69.38
2019-05-28T09:17:27.792Z,68.68
2019-05-28T09:18:27.793Z,67.55
2019-05-28T09:19:27.792Z,67.84
2019-05-28T09:20:27.798Z,67.81
2019-05-28T09:21:27.804Z,68.29
2019-05-28T09:22:27.802Z,67.71
2019-05-28T09:23:27.860Z,68.58
2019-05-28T09:24:28.063Z,68.87
2019-05-28T09:25:27.801Z,68.77
2019-05-28T09:26:27.801Z,69.54
2019-05-28T09:27:27.806Z,69.22
2019-05-28T09:28:30.516Z,70.47
2019-05-28T09:29:27.803Z,70.37
2019-05-28T09:30:27.808Z,69.22
2019-05-28T09:31:27.810Z,69.02
2019-05-28T09:32:27.810Z,69.41
2019-05-28T09:33:27.802Z,69.57
2019-05-28T09:34:27.817Z,70.15
2019-05-28T09:35:43.339Z,70.53
2019-05-28T09:36:27.815Z,70.18
2019-05-28T09:37:27.815Z,69.70
2019-05-28T09:38:27.824Z,69.70
2019-05-28T09:39:27.821Z,69.31
2019-05-28T09:40:45.973Z,69.25
2019-05-28T09:41:27.822Z,70.50
2019-05-28T09:42:27.819Z,69.35
2019-05-28T09:43:27.821Z,68.42
2019-05-28T09:44:27.819Z,67.36
2019-05-28T09:45:27.823Z,66.59
2019-05-28T09:46:27.822Z,67.26
2019-05-28T09:47:27.822Z,66.20
2019-05-28T09:48:27.821Z,65.59
2019-05-28T09:49:27.824Z,64.95
2019-05-28T09:50:31.084Z,64.76
2019-05-28T09:51:27.830Z,65.14
2019-05-28T09:52:27.827Z,65.81
2019-05-28T09:53:27.828Z,67.84
2019-05-28T09:54:27.832Z,67.55
2019-05-28T09:55:27.830Z,65.81
2019-05-28T09:56:27.834Z,64.18
2019-05-28T09:57:27.834Z,64.08
2019-05-28T09:58:27.835Z,64.18
2019-05-28T09:59:40.533Z,63.98
2019-05-28T10:00:27.837Z,65.53
2019-05-28T10:01:27.867Z,65.63
2019-05-28T10:02:27.839Z,65.24
2019-05-28T10:03:27.851Z,64.66
2019-05-28T10:04:46.356Z,64.37
2019-05-28T10:05:27.852Z,63.21
2019-05-28T10:06:36.654Z,62.45
2019-05-28T10:07:27.846Z,62.73
2019-05-28T10:08:27.862Z,63.85
2019-05-28T10:09:27.896Z,65.24
2019-05-28T10:10:27.866Z,65.72
2019-05-28T10:11:27.851Z,64.76
2019-05-28T10:12:27.853Z,65.81
2019-05-28T10:13:38.322Z,66.20
2019-05-28T10:14:27.854Z,66.88
2019-05-28T10:15:27.865Z,66.78
2019-05-28T10:16:27.855Z,65.24
2019-05-28T10:17:27.868Z,64.95
2019-05-28T10:18:27.857Z,63.98
2019-05-28T10:19:27.875Z,65.05
2019-05-28T10:20:27.860Z,65.20
2019-05-28T10:21:27.861Z,65.50
2019-05-28T10:22:27.861Z,66.46
2019-05-28T10:23:27.869Z,67.13
2019-05-28T10:24:27.865Z,67.49
2019-05-28T10:25:27.868Z,69.60
2019-05-28T10:26:27.868Z,70.76
2019-05-28T10:27:27.866Z,72.26
2019-05-28T10:28:27.869Z,73.00
2019-05-28T10:29:28.055Z,75.02
2019-05-28T10:30:27.874Z,78.25
2019-05-28T10:31:27.870Z,82.96
2019-05-28T10:32:27.885Z,86.18
2019-05-28T10:33:27.876Z,88.97
2019-05-28T10:34:27.872Z,86.95
2019-05-28T10:35:27.875Z,88.25
2019-05-28T10:36:35.696Z,87.68
2019-05-28T10:37:27.885Z,88.64
2019-05-28T10:38:27.873Z,90.52
2019-05-28T10:39:27.868Z,90.03
2019-05-28T10:40:27.871Z,90.90
2019-05-28T10:41:27.875Z,92.53
2019-05-28T10:42:27.874Z,94.16
2019-05-28T10:43:27.886Z,94.16
2019-05-28T10:44:27.871Z,94.35
2019-05-28T10:45:27.867Z,94.64
2019-05-28T10:46:27.868Z,95.03
2019-05-28T10:47:27.863Z,95.89
2019-05-28T10:48:27.858Z,95.89
2019-05-28T10:49:27.864Z,98.24
2019-05-28T10:50:27.861Z,97.47
2019-05-28T10:51:27.856Z,98.34
2019-05-28T10:52:27.855Z,96.22
2019-05-28T10:53:27.854Z,96.22
2019-05-28T10:54:27.846Z,95.84
2019-05-28T10:55:27.850Z,94.98
2019-05-28T10:56:27.864Z,96.17
2019-05-28T10:57:27.848Z,96.75
2019-05-28T10:58:27.844Z,96.17
2019-05-28T10:59:27.843Z,91.08
2019-05-28T11:00:27.848Z,90.41
2019-05-28T11:01:27.833Z,90.31
2019-05-28T11:02:27.841Z,89.83
2019-05-28T11:03:27.842Z,89.16
2019-05-28T11:04:27.835Z,87.82
2019-05-28T11:05:27.845Z,87.24
2019-05-28T11:06:27.833Z,88.97
2019-05-28T11:07:27.834Z,89.64
2019-05-28T11:08:27.834Z,88.97
2019-05-28T11:09:27.827Z,88.30
2019-05-28T11:10:27.836Z,89.54
2019-05-28T11:11:27.826Z,85.61
2019-05-28T11:12:27.839Z,83.30
2019-05-28T11:13:27.831Z,80.90
2019-05-28T11:14:27.826Z,81.19
2019-05-28T11:15:27.829Z,82.05
2019-05-28T11:16:27.824Z,83.30
2019-05-28T11:17:27.826Z,79.80
2019-05-28T11:18:27.829Z,78.84
2019-05-28T11:19:27.819Z,79.22
2019-05-28T11:20:27.819Z,79.22
2019-05-28T11:21:27.820Z,79.22
2019-05-28T11:22:27.822Z,79.90
2019-05-28T11:23:27.817Z,80.34
2019-05-28T11:24:27.814Z,80.82
2019-05-28T11:25:27.815Z,82.07
2019-05-28T11:26:27.814Z,82.84
2019-05-28T11:27:27.814Z,83.65
2019-05-28T11:28:27.816Z,83.89
2019-05-28T11:29:27.815Z,85.04
2019-05-28T11:30:27.813Z,85.24
2019-05-28T11:31:27.812Z,83.80
2019-05-28T11:32:27.814Z,84.51
2019-05-28T11:33:27.807Z,83.64
2019-05-28T11:34:27.801Z,83.54
2019-05-28T11:35:27.805Z,81.20
2019-05-28T11:36:27.803Z,77.75
2019-05-28T11:37:27.794Z,77.84
2019-05-28T11:38:27.795Z,77.36
2019-05-28T11:39:27.798Z,76.40
2019-05-28T11:40:29.974Z,76.07
2019-05-28T11:41:41.438Z,76.21
2019-05-28T11:42:27.812Z,77.08
2019-05-28T11:43:27.791Z,78.42
2019-05-28T11:44:27.793Z,77.75
2019-05-28T11:45:27.791Z,78.32
2019-05-28T11:46:27.789Z,76.17
2019-05-28T11:47:27.798Z,77.13
2019-05-28T11:48:27.789Z,77.17
2019-05-28T11:49:27.786Z,77.56
2019-05-28T11:50:27.795Z,77.65
2019-05-28T11:51:27.782Z,77.33
2019-05-28T11:52:27.794Z,77.04
2019-05-28T11:53:27.786Z,77.90
2019-05-28T11:54:27.774Z,77.61
2019-05-28T11:55:27.776Z,78.77
2019-05-28T11:56:27.773Z,80.01
2019-05-28T11:57:27.774Z,80.97
2019-05-28T11:58:27.770Z,81.93
2019-05-28T11:59:27.773Z,82.51
2019-05-28T12:00:27.772Z,83.47
2019-05-28T12:01:34.309Z,82.74
2019-05-28T12:02:27.769Z,83.31
2019-05-28T12:03:27.770Z,83.22
2019-05-28T12:04:27.759Z,82.87
2019-05-28T12:05:27.762Z,81.86
2019-05-28T12:06:27.761Z,80.71
2019-05-28T12:07:27.760Z,80.22
2019-05-28T12:08:27.757Z,80.22
2019-05-28T12:09:27.755Z,81.38
2019-05-28T12:10:27.762Z,83.25
2019-05-28T12:11:27.757Z,84.78
2019-05-28T12:12:27.756Z,85.36
2019-05-28T12:13:27.754Z,84.59
2019-05-28T12:14:27.754Z,85.84
2019-05-28T12:15:27.755Z,85.36
2019-05-28T12:16:27.760Z,82.48
2019-05-28T12:17:41.931Z,83.06
2019-05-28T12:18:27.750Z,84.69
2019-05-28T12:19:27.753Z,82.73
2019-05-28T12:20:27.752Z,82.86
2019-05-28T12:21:27.754Z,82.53
2019-05-28T12:22:27.756Z,81.71
2019-05-28T12:23:27.747Z,82.48
2019-05-28T12:24:28.771Z,83.15
2019-05-28T12:25:27.746Z,81.61
2019-05-28T12:26:27.750Z,79.21
2019-05-28T12:27:27.745Z,79.60
2019-05-28T12:28:37.777Z,76.67
2019-05-28T12:29:27.749Z,76.39
2019-05-28T12:30:27.745Z,76.57
2019-05-28T12:31:27.747Z,75.04
2019-05-28T12:32:27.744Z,75.10
2019-05-28T12:33:28.080Z,76.48
2019-05-28T12:34:27.740Z,78.59
2019-05-28T12:35:30.010Z,76.29
2019-05-28T12:36:27.740Z,74.81
2019-05-28T12:37:46.370Z,76.15
2019-05-28T12:38:27.741Z,78.02
2019-05-28T12:39:27.734Z,77.69
2019-05-28T12:40:27.734Z,77.44
2019-05-28T12:41:27.736Z,76.09
2019-05-28T12:42:27.734Z,75.71
2019-05-28T12:43:27.733Z,75.32
2019-05-28T12:44:41.097Z,75.52
2019-05-28T12:45:35.682Z,75.71
2019-05-28T12:46:27.732Z,75.75
2019-05-28T12:47:27.733Z,75.27
2019-05-28T12:48:27.726Z,75.84
2019-05-28T12:49:27.731Z,75.65
2019-05-28T12:50:27.727Z,77.67
2019-05-28T12:51:27.722Z,77.86
2019-05-28T12:52:27.719Z,74.88